Apple Valley, Utah
Current Conditions -  °F | °C
As of 1:15 PM on Monday 24 Nov 2014 (Local Time) from KAZC Reporting Station
Clear Clear  
Wind Chill: 51°   Ceiling: Unl
Heat Index: 51°   Visibility: 10mi
Dew Point:   Wind: 17mph
Humidity: 16%   Direction: 320°NW
Pressure: 30.34"   Gusts: 30mph
Location:  37.2274°N, 113.139°W
Report Text: KAZC 242015Z AUTO 32015G26KT 10SM CLR 11/M15 A3034 RMK AO2 T01051148
Loading
Personal Weather Stations






























Interactive Weather Map New forecast layout! Learn more

10-Day Weather Forecast

Advertisements
Track Severe Weather on mobile